createdAt,value
2019-03-24T00:00:40.536Z,7.95
2019-03-24T00:03:07.749Z,7.89
2019-03-24T00:05:35.003Z,7.82
2019-03-24T00:08:02.342Z,7.78
2019-03-24T00:10:29.535Z,7.72
2019-03-24T00:12:56.999Z,7.68
2019-03-24T00:15:26.511Z,7.67
2019-03-24T00:17:53.360Z,7.64
2019-03-24T00:20:20.563Z,7.65
2019-03-24T00:22:47.754Z,7.64
2019-03-24T00:25:14.966Z,7.67
2019-03-24T00:27:42.154Z,7.68
2019-03-24T00:30:09.896Z,7.70
2019-03-24T00:32:37.222Z,7.71
2019-03-24T00:35:04.632Z,7.76
2019-03-24T00:37:31.812Z,7.77
2019-03-24T00:39:59.153Z,7.80
2019-03-24T00:42:26.498Z,7.79
2019-03-24T00:44:53.765Z,7.83
2019-03-24T00:47:22.545Z,7.84
2019-03-24T00:49:49.861Z,7.84
2019-03-24T00:52:17.171Z,7.82
2019-03-24T00:54:44.274Z,7.78
2019-03-24T00:57:11.515Z,7.73
2019-03-24T00:59:38.706Z,7.73
2019-03-24T01:02:06.057Z,7.70
2019-03-24T01:04:33.415Z,7.68
2019-03-24T01:07:00.656Z,7.67
2019-03-24T01:09:27.977Z,7.65
2019-03-24T01:11:55.188Z,7.63
2019-03-24T01:14:22.402Z,7.62
2019-03-24T01:16:49.593Z,7.60
2019-03-24T01:19:16.780Z,7.59
2019-03-24T01:21:44.128Z,7.57
2019-03-24T01:24:11.396Z,7.56
2019-03-24T01:26:38.637Z,7.55
2019-03-24T01:29:05.950Z,7.53
2019-03-24T01:31:33.127Z,7.53
2019-03-24T01:34:00.443Z,7.52
2019-03-24T01:36:27.748Z,7.55
2019-03-24T01:38:54.945Z,7.56
2019-03-24T01:41:22.148Z,7.57
2019-03-24T01:43:49.539Z,7.55
2019-03-24T01:46:16.712Z,7.55
2019-03-24T01:48:43.938Z,7.57
2019-03-24T01:51:11.332Z,7.59
2019-03-24T01:53:38.477Z,7.58
2019-03-24T01:56:06.234Z,7.57
2019-03-24T01:58:33.531Z,7.54
2019-03-24T02:01:00.739Z,7.51
2019-03-24T02:03:27.938Z,7.48
2019-03-24T02:05:55.316Z,7.44
2019-03-24T02:08:22.528Z,7.42
2019-03-24T02:10:49.793Z,7.36
2019-03-24T02:13:17.027Z,7.33
2019-03-24T02:15:44.223Z,7.29
2019-03-24T02:18:11.535Z,7.26
2019-03-24T02:20:38.844Z,7.24
2019-03-24T02:23:06.042Z,7.21
2019-03-24T02:25:33.369Z,7.18
2019-03-24T02:28:00.621Z,7.16
2019-03-24T02:30:27.793Z,7.14
2019-03-24T02:32:55.074Z,7.08
2019-03-24T02:35:22.316Z,7.05
2019-03-24T02:37:49.663Z,7.00
2019-03-24T02:40:16.853Z,6.97
2019-03-24T02:42:44.100Z,6.96
2019-03-24T02:45:11.576Z,6.95
2019-03-24T02:47:38.821Z,6.92
2019-03-24T02:50:06.829Z,6.88
2019-03-24T02:52:34.118Z,6.86
2019-03-24T02:55:01.339Z,6.84
2019-03-24T02:57:28.520Z,6.79
2019-03-24T02:59:56.806Z,6.75
2019-03-24T03:02:24.088Z,6.73
2019-03-24T03:04:51.309Z,6.70
2019-03-24T03:07:18.700Z,6.67
2019-03-24T03:09:45.875Z,6.64
2019-03-24T03:12:13.235Z,6.62
2019-03-24T03:14:41.636Z,6.59
2019-03-24T03:17:08.924Z,6.56
2019-03-24T03:19:36.120Z,6.55
2019-03-24T03:22:03.526Z,6.54
2019-03-24T03:24:30.818Z,6.54
2019-03-24T03:26:58.094Z,6.53
2019-03-24T03:29:25.325Z,6.51
2019-03-24T03:31:52.647Z,6.52
2019-03-24T03:34:19.878Z,6.52
2019-03-24T03:36:47.120Z,6.52
2019-03-24T03:39:14.387Z,6.45
2019-03-24T03:41:41.554Z,6.50
2019-03-24T03:44:08.751Z,6.48
2019-03-24T03:46:36.030Z,6.48
2019-03-24T03:49:03.230Z,6.45
2019-03-24T03:51:30.403Z,6.45
2019-03-24T03:54:00.645Z,6.45
2019-03-24T03:56:27.907Z,6.44
2019-03-24T03:58:55.064Z,6.44
2019-03-24T04:01:22.352Z,6.45
2019-03-24T04:03:49.763Z,6.41
2019-03-24T04:06:17.052Z,6.40
2019-03-24T04:08:44.245Z,6.38
2019-03-24T04:11:11.643Z,6.39
2019-03-24T04:13:38.975Z,6.36
2019-03-24T04:16:06.129Z,6.35
2019-03-24T04:18:34.637Z,6.34
2019-03-24T04:21:01.885Z,6.32
2019-03-24T04:23:29.184Z,6.32
2019-03-24T04:25:56.386Z,6.30
2019-03-24T04:28:23.743Z,6.28
2019-03-24T04:30:52.665Z,6.31
2019-03-24T04:33:21.225Z,6.30
2019-03-24T04:35:49.696Z,6.27
2019-03-24T04:38:17.318Z,6.27
2019-03-24T04:40:45.827Z,6.28
2019-03-24T04:43:12.980Z,6.28
2019-03-24T04:45:40.426Z,6.26
2019-03-24T04:48:07.626Z,6.24
2019-03-24T04:50:34.940Z,6.22
2019-03-24T04:53:02.116Z,6.18
2019-03-24T04:55:32.212Z,6.18
2019-03-24T04:57:59.483Z,6.13
2019-03-24T05:00:34.564Z,6.10
2019-03-24T05:03:01.994Z,6.08
2019-03-24T05:05:29.299Z,6.04
2019-03-24T05:07:56.989Z,6.01
2019-03-24T05:10:27.455Z,5.99
2019-03-24T05:12:54.815Z,5.96
2019-03-24T05:15:22.229Z,5.94
2019-03-24T05:17:49.588Z,5.87
2019-03-24T05:20:16.975Z,5.85
2019-03-24T05:22:44.363Z,5.84
2019-03-24T05:25:11.720Z,5.83
2019-03-24T05:27:38.879Z,5.80
2019-03-24T05:30:06.497Z,5.78
2019-03-24T05:32:33.747Z,5.78
2019-03-24T05:35:01.729Z,5.78
2019-03-24T05:37:29.100Z,5.78
2019-03-24T05:39:56.308Z,5.80
2019-03-24T05:42:23.759Z,5.81
2019-03-24T05:44:50.944Z,5.82
2019-03-24T05:47:18.175Z,5.84
2019-03-24T05:49:45.371Z,5.89
2019-03-24T05:52:12.651Z,5.95
2019-03-24T05:54:39.941Z,6.01
2019-03-24T05:57:07.267Z,6.08
2019-03-24T05:59:34.550Z,6.04
2019-03-24T06:02:01.818Z,6.17
2019-03-24T06:04:29.190Z,6.21
2019-03-24T06:06:56.468Z,6.25
2019-03-24T06:09:23.905Z,6.29
2019-03-24T06:11:51.195Z,6.36
2019-03-24T06:14:18.368Z,6.42
2019-03-24T06:16:45.851Z,6.50
2019-03-24T06:19:13.343Z,6.59
2019-03-24T06:21:40.620Z,6.66
2019-03-24T06:24:07.849Z,6.72
2019-03-24T06:26:37.282Z,6.80
2019-03-24T06:29:04.715Z,6.89
2019-03-24T06:31:32.016Z,6.97
2019-03-24T06:34:00.611Z,7.03
2019-03-24T06:36:27.847Z,7.14
2019-03-24T06:38:55.204Z,7.23
2019-03-24T06:41:22.439Z,7.31
2019-03-24T06:43:49.953Z,7.41
2019-03-24T06:46:17.343Z,7.51
2019-03-24T06:48:44.535Z,7.59
2019-03-24T06:51:11.797Z,7.68
2019-03-24T06:53:39.750Z,7.79
2019-03-24T06:56:07.212Z,7.91
2019-03-24T06:58:34.444Z,8.02
2019-03-24T07:01:01.831Z,8.12
2019-03-24T07:03:29.177Z,8.22
2019-03-24T07:05:56.354Z,8.32
2019-03-24T07:08:23.675Z,8.41
2019-03-24T07:10:50.931Z,8.51
2019-03-24T07:13:19.100Z,8.61
2019-03-24T07:15:46.652Z,8.72
2019-03-24T07:18:14.005Z,8.83
2019-03-24T07:20:41.306Z,8.94
2019-03-24T07:23:08.509Z,9.08
2019-03-24T07:25:35.920Z,9.19
2019-03-24T07:28:03.228Z,9.27
2019-03-24T07:30:30.486Z,9.37
2019-03-24T07:32:57.756Z,9.48
2019-03-24T07:35:25.052Z,9.60
2019-03-24T07:37:52.244Z,9.71
2019-03-24T07:40:19.661Z,9.84
2019-03-24T07:42:46.960Z,9.95
2019-03-24T07:45:14.264Z,10.07
2019-03-24T07:47:41.624Z,10.23
2019-03-24T07:50:09.148Z,10.42
2019-03-24T07:52:36.509Z,10.60
2019-03-24T07:55:04.312Z,10.87
2019-03-24T07:57:32.017Z,11.19
2019-03-24T07:59:59.238Z,11.49
2019-03-24T08:02:26.435Z,11.84
2019-03-24T08:04:53.827Z,12.13
2019-03-24T08:07:20.897Z,12.45
2019-03-24T08:09:48.242Z,12.73
2019-03-24T08:12:15.442Z,13.07
2019-03-24T08:14:42.803Z,13.40
2019-03-24T08:17:10.074Z,13.68
2019-03-24T08:19:37.334Z,13.92
2019-03-24T08:22:04.573Z,14.20
2019-03-24T08:24:31.751Z,14.44
2019-03-24T08:26:59.204Z,14.65
2019-03-24T08:29:26.472Z,14.82
2019-03-24T08:31:53.776Z,14.94
2019-03-24T08:34:20.901Z,15.11
2019-03-24T08:36:48.128Z,15.33
2019-03-24T08:39:15.487Z,15.53
2019-03-24T08:41:42.563Z,15.92
2019-03-24T08:44:09.716Z,16.18
2019-03-24T08:46:37.047Z,16.21
2019-03-24T08:49:04.495Z,16.42
2019-03-24T08:51:31.749Z,16.54
2019-03-24T08:53:59.000Z,16.76
2019-03-24T08:56:26.279Z,17.03
2019-03-24T08:58:53.623Z,17.06
2019-03-24T09:01:20.830Z,17.30
2019-03-24T09:03:48.102Z,17.56
2019-03-24T09:06:15.189Z,17.85
2019-03-24T09:08:42.388Z,18.29
2019-03-24T09:11:09.769Z,18.35
2019-03-24T09:13:36.944Z,18.40
2019-03-24T09:16:04.248Z,18.61
2019-03-24T09:18:31.524Z,18.93
2019-03-24T09:20:58.836Z,19.19
2019-03-24T09:23:26.196Z,19.43
2019-03-24T09:25:53.657Z,19.56
2019-03-24T09:28:20.938Z,19.68
2019-03-24T09:30:48.244Z,19.81
2019-03-24T09:33:15.534Z,19.94
2019-03-24T09:35:42.845Z,19.95
2019-03-24T09:38:11.299Z,20.02
2019-03-24T09:40:38.666Z,20.01
2019-03-24T09:43:05.912Z,20.28
2019-03-24T09:45:33.280Z,20.38
2019-03-24T09:48:00.605Z,20.21
2019-03-24T09:50:27.988Z,20.24
2019-03-24T09:52:55.353Z,20.28
2019-03-24T09:55:22.567Z,20.20
2019-03-24T09:57:49.823Z,20.42
2019-03-24T10:00:17.134Z,20.38
2019-03-24T10:02:44.250Z,19.78
2019-03-24T10:05:11.800Z,19.72
2019-03-24T10:07:38.982Z,19.57
2019-03-24T10:10:06.423Z,19.42
2019-03-24T10:12:33.690Z,19.45
2019-03-24T10:15:00.899Z,19.54
2019-03-24T10:17:28.091Z,19.55
2019-03-24T10:19:55.216Z,19.73
2019-03-24T10:22:22.517Z,19.93
2019-03-24T10:24:49.707Z,20.41
2019-03-24T10:27:16.903Z,20.57
2019-03-24T10:29:44.234Z,20.92
2019-03-24T10:32:11.774Z,21.37
2019-03-24T10:34:39.246Z,21.60
2019-03-24T10:37:06.471Z,22.27
2019-03-24T10:39:33.928Z,22.44
2019-03-24T10:42:01.271Z,22.73
2019-03-24T10:44:28.540Z,23.00
2019-03-24T10:46:55.905Z,23.62
2019-03-24T10:49:25.047Z,24.02
2019-03-24T10:51:52.685Z,24.36
2019-03-24T10:54:19.763Z,24.60
2019-03-24T10:56:46.946Z,25.07
2019-03-24T10:59:14.304Z,24.97
2019-03-24T11:01:41.481Z,24.89
2019-03-24T11:04:08.772Z,24.95
2019-03-24T11:06:36.028Z,25.08
2019-03-24T11:09:04.067Z,25.10
2019-03-24T11:11:31.143Z,25.37
2019-03-24T11:13:58.408Z,25.61
2019-03-24T11:16:25.566Z,25.59
2019-03-24T11:18:52.908Z,25.92
2019-03-24T11:21:20.189Z,26.09
2019-03-24T11:23:47.380Z,25.99
2019-03-24T11:26:14.579Z,26.06
2019-03-24T11:28:41.925Z,26.33
2019-03-24T11:31:09.185Z,26.22
2019-03-24T11:33:36.364Z,26.19
2019-03-24T11:36:03.646Z,25.96
2019-03-24T11:38:31.256Z,26.17
2019-03-24T11:40:58.373Z,26.11
2019-03-24T11:43:25.800Z,25.98
2019-03-24T11:45:53.152Z,26.05
2019-03-24T11:48:20.323Z,25.41
2019-03-24T11:50:48.641Z,25.25
2019-03-24T11:53:15.852Z,25.12
2019-03-24T11:55:43.041Z,24.93
2019-03-24T11:58:10.188Z,25.34
2019-03-24T12:00:38.878Z,25.47
2019-03-24T12:03:06.363Z,25.02
2019-03-24T12:05:33.681Z,24.90
2019-03-24T12:08:01.046Z,24.84
2019-03-24T12:10:28.345Z,24.58
2019-03-24T12:12:55.520Z,24.40
2019-03-24T12:15:22.839Z,24.04
2019-03-24T12:17:49.941Z,23.97
2019-03-24T12:20:17.142Z,23.79
2019-03-24T12:22:44.418Z,23.53
2019-03-24T12:25:11.700Z,23.42
2019-03-24T12:27:38.878Z,23.26
2019-03-24T12:30:07.315Z,22.97
2019-03-24T12:32:34.659Z,22.74
2019-03-24T12:35:01.979Z,22.78
2019-03-24T12:37:29.332Z,22.83
2019-03-24T12:39:58.091Z,22.76
2019-03-24T12:42:25.462Z,22.70
2019-03-24T12:44:52.814Z,22.60
2019-03-24T12:47:20.135Z,22.57
2019-03-24T12:49:47.431Z,22.39
2019-03-24T12:52:14.625Z,22.54
2019-03-24T12:54:41.908Z,22.49
2019-03-24T12:57:09.122Z,22.58
2019-03-24T12:59:36.362Z,22.64
2019-03-24T13:02:03.780Z,22.82
2019-03-24T13:04:31.180Z,22.89
2019-03-24T13:06:58.376Z,23.01
2019-03-24T13:09:25.766Z,23.05
2019-03-24T13:11:53.145Z,23.32
2019-03-24T13:14:20.230Z,23.52
2019-03-24T13:16:47.455Z,23.37
2019-03-24T13:19:14.655Z,23.34
2019-03-24T13:21:41.753Z,23.18
2019-03-24T13:24:09.009Z,22.96
2019-03-24T13:26:36.351Z,22.82
2019-03-24T13:29:03.766Z,22.70
2019-03-24T13:31:30.952Z,22.58
2019-03-24T13:33:58.253Z,22.57
2019-03-24T13:36:25.456Z,22.33
2019-03-24T13:38:52.639Z,21.95
2019-03-24T13:41:19.909Z,21.73
2019-03-24T13:43:46.995Z,21.50
2019-03-24T13:46:14.374Z,21.42
2019-03-24T13:48:41.694Z,21.30
2019-03-24T13:51:08.888Z,21.15
2019-03-24T13:53:36.230Z,21.06
2019-03-24T13:56:03.900Z,21.06
2019-03-24T13:58:31.087Z,21.14
2019-03-24T14:00:58.497Z,21.23
2019-03-24T14:03:25.725Z,21.25
2019-03-24T14:05:52.938Z,21.32
2019-03-24T14:08:20.186Z,21.42
2019-03-24T14:10:47.495Z,21.39
2019-03-24T14:13:14.608Z,21.31
2019-03-24T14:15:41.796Z,21.15
2019-03-24T14:18:09.118Z,21.28
2019-03-24T14:20:43.305Z,21.19
2019-03-24T14:23:05.614Z,21.23
2019-03-24T14:25:32.907Z,21.21
2019-03-24T14:28:00.203Z,21.23
2019-03-24T14:30:40.270Z,21.33
2019-03-24T14:33:07.491Z,21.34
2019-03-24T14:35:34.696Z,21.34
2019-03-24T14:38:01.996Z,21.39
2019-03-24T14:40:29.306Z,21.44
2019-03-24T14:42:56.495Z,21.62
2019-03-24T14:45:24.283Z,21.75
2019-03-24T14:47:51.399Z,21.77
2019-03-24T14:50:18.683Z,21.85
2019-03-24T14:52:46.091Z,21.92
2019-03-24T14:55:13.401Z,22.02
2019-03-24T14:57:40.750Z,22.05
2019-03-24T15:00:08.452Z,21.76
2019-03-24T15:02:35.975Z,21.63
2019-03-24T15:05:03.852Z,21.33
2019-03-24T15:07:31.023Z,21.07
2019-03-24T15:09:58.332Z,20.85
2019-03-24T15:12:25.531Z,20.72
2019-03-24T15:14:52.732Z,20.60
2019-03-24T15:17:20.036Z,20.46
2019-03-24T15:19:47.332Z,20.38
2019-03-24T15:22:14.546Z,20.22
2019-03-24T15:24:42.001Z,20.14
2019-03-24T15:27:09.317Z,20.06
2019-03-24T15:29:36.528Z,19.96
2019-03-24T15:32:03.952Z,19.86
2019-03-24T15:34:31.313Z,19.76
2019-03-24T15:36:58.492Z,19.60
2019-03-24T15:39:26.150Z,19.48
2019-03-24T15:41:53.381Z,19.38
2019-03-24T15:44:20.599Z,19.30
2019-03-24T15:46:47.878Z,19.17
2019-03-24T15:49:14.972Z,19.07
2019-03-24T15:51:42.126Z,18.97
2019-03-24T15:54:13.288Z,18.82
2019-03-24T15:56:40.180Z,18.72
2019-03-24T15:59:07.575Z,18.62
2019-03-24T16:01:34.836Z,18.47
2019-03-24T16:04:02.015Z,18.33
2019-03-24T16:06:29.274Z,18.21
2019-03-24T16:08:56.631Z,18.10
2019-03-24T16:11:23.841Z,18.02
2019-03-24T16:13:53.983Z,17.92
2019-03-24T16:16:23.064Z,17.81
2019-03-24T16:18:50.642Z,17.71
2019-03-24T16:21:27.311Z,17.62
2019-03-24T16:23:47.377Z,17.54
2019-03-24T16:26:14.769Z,17.45
2019-03-24T16:28:42.113Z,17.36
2019-03-24T16:31:09.656Z,17.27
2019-03-24T16:33:36.983Z,17.20
2019-03-24T16:36:04.453Z,17.11
2019-03-24T16:38:31.833Z,17.02
2019-03-24T16:40:59.789Z,16.90
2019-03-24T16:43:27.182Z,16.80
2019-03-24T16:45:54.564Z,16.69
2019-03-24T16:48:21.908Z,16.58
2019-03-24T16:50:49.206Z,16.50
2019-03-24T16:53:16.543Z,16.42
2019-03-24T16:55:43.732Z,16.34
2019-03-24T16:58:11.020Z,16.19
2019-03-24T17:00:38.421Z,16.08
2019-03-24T17:03:05.791Z,15.99
2019-03-24T17:05:33.077Z,15.89
2019-03-24T17:08:00.433Z,15.81
2019-03-24T17:10:27.663Z,15.72
2019-03-24T17:12:54.827Z,15.63
2019-03-24T17:15:22.195Z,15.53
2019-03-24T17:17:49.359Z,15.45
2019-03-24T17:20:16.576Z,15.38
2019-03-24T17:22:43.726Z,15.32
2019-03-24T17:25:11.097Z,15.25
2019-03-24T17:27:38.490Z,15.18
2019-03-24T17:30:07.284Z,15.12
2019-03-24T17:32:34.635Z,15.08
2019-03-24T17:35:01.834Z,15.03
2019-03-24T17:37:30.098Z,14.98
2019-03-24T17:39:57.569Z,14.91
2019-03-24T17:42:24.907Z,14.86
2019-03-24T17:44:52.202Z,14.80
2019-03-24T17:47:19.498Z,14.74
2019-03-24T17:49:48.045Z,14.67
2019-03-24T17:52:15.461Z,14.57
2019-03-24T17:54:42.728Z,14.47
2019-03-24T17:57:10.187Z,14.37
2019-03-24T17:59:37.542Z,14.26
2019-03-24T18:02:14.161Z,14.17
2019-03-24T18:04:37.528Z,14.07
2019-03-24T18:07:04.836Z,13.97
2019-03-24T18:09:32.251Z,13.88
2019-03-24T18:11:59.436Z,13.78
2019-03-24T18:14:26.753Z,13.70
2019-03-24T18:16:54.066Z,13.59
2019-03-24T18:19:21.421Z,13.51
2019-03-24T18:21:48.792Z,13.45
2019-03-24T18:24:16.242Z,13.39
2019-03-24T18:26:43.598Z,13.35
2019-03-24T18:29:10.863Z,13.30
2019-03-24T18:31:38.092Z,13.25
2019-03-24T18:34:05.375Z,13.18
2019-03-24T18:36:32.810Z,13.09
2019-03-24T18:39:00.249Z,13.02
2019-03-24T18:41:27.639Z,12.97
2019-03-24T18:43:55.141Z,12.88
2019-03-24T18:46:22.379Z,12.82
2019-03-24T18:48:50.974Z,12.74
2019-03-24T18:51:18.049Z,12.66
2019-03-24T18:53:45.340Z,12.56
2019-03-24T18:56:12.617Z,12.47
2019-03-24T18:58:39.940Z,12.37
2019-03-24T19:01:07.322Z,12.31
2019-03-24T19:03:34.568Z,12.22
2019-03-24T19:06:01.841Z,12.15
2019-03-24T19:08:29.334Z,12.08
2019-03-24T19:10:56.777Z,12.01
2019-03-24T19:13:24.011Z,11.94
2019-03-24T19:15:51.263Z,11.86
2019-03-24T19:18:18.581Z,11.82
2019-03-24T19:20:45.867Z,11.75
2019-03-24T19:23:13.155Z,11.69
2019-03-24T19:25:40.426Z,11.61
2019-03-24T19:28:07.747Z,11.53
2019-03-24T19:30:39.589Z,11.45
2019-03-24T19:33:07.034Z,11.39
2019-03-24T19:35:34.501Z,11.35
2019-03-24T19:38:02.964Z,11.32
2019-03-24T19:40:31.867Z,11.32
2019-03-24T19:42:59.176Z,11.28
2019-03-24T19:45:26.608Z,11.28
2019-03-24T19:47:54.111Z,11.22
2019-03-24T19:50:21.499Z,11.17
2019-03-24T19:52:48.974Z,11.12
2019-03-24T19:55:16.365Z,11.06
2019-03-24T19:57:43.679Z,11.05
2019-03-24T20:00:10.958Z,11.03
2019-03-24T20:02:38.333Z,11.03
2019-03-24T20:05:07.127Z,11.00
2019-03-24T20:07:35.659Z,11.03
2019-03-24T20:10:03.240Z,11.00
2019-03-24T20:12:31.337Z,10.97
2019-03-24T20:14:58.532Z,11.00
2019-03-24T20:17:25.844Z,11.01
2019-03-24T20:19:53.162Z,11.04
2019-03-24T20:22:20.895Z,10.99
2019-03-24T20:24:48.300Z,10.92
2019-03-24T20:27:15.692Z,10.87
2019-03-24T20:29:43.062Z,10.79
2019-03-24T20:32:10.553Z,10.69
2019-03-24T20:34:37.964Z,10.61
2019-03-24T20:37:05.272Z,10.50
2019-03-24T20:39:33.892Z,10.45
2019-03-24T20:42:04.078Z,10.40
2019-03-24T20:44:31.379Z,10.36
2019-03-24T20:46:58.632Z,10.37
2019-03-24T20:49:26.085Z,10.29
2019-03-24T20:51:53.422Z,10.21
2019-03-24T20:54:20.807Z,10.16
2019-03-24T20:56:48.175Z,10.10
2019-03-24T20:59:15.501Z,10.05
2019-03-24T21:01:42.889Z,10.01
2019-03-24T21:04:10.384Z,9.95
2019-03-24T21:06:37.697Z,9.97
2019-03-24T21:09:06.809Z,9.96
2019-03-24T21:11:34.252Z,9.95
2019-03-24T21:14:01.624Z,9.92
2019-03-24T21:16:28.953Z,9.86
2019-03-24T21:18:56.323Z,9.82
2019-03-24T21:21:23.755Z,9.75
2019-03-24T21:23:51.261Z,9.74
2019-03-24T21:26:18.568Z,9.71
2019-03-24T21:28:46.028Z,9.66
2019-03-24T21:31:13.342Z,9.59
2019-03-24T21:33:40.739Z,9.53
2019-03-24T21:36:08.106Z,9.55
2019-03-24T21:38:35.336Z,9.50
2019-03-24T21:41:02.673Z,9.44
2019-03-24T21:43:30.075Z,9.36
2019-03-24T21:45:57.448Z,9.28
2019-03-24T21:48:25.000Z,9.21
2019-03-24T21:50:52.353Z,9.12
2019-03-24T21:53:19.600Z,9.06
2019-03-24T21:55:47.027Z,8.97
2019-03-24T21:58:14.415Z,8.90
2019-03-24T22:00:41.779Z,8.81
2019-03-24T22:03:09.111Z,8.74
2019-03-24T22:05:36.854Z,8.67
2019-03-24T22:08:04.947Z,8.59
2019-03-24T22:10:32.327Z,8.59
2019-03-24T22:12:59.606Z,8.58
2019-03-24T22:15:27.098Z,8.61
2019-03-24T22:17:54.422Z,8.62
2019-03-24T22:20:21.680Z,8.66
2019-03-24T22:22:49.961Z,8.69
2019-03-24T22:25:17.368Z,8.77
2019-03-24T22:27:44.576Z,8.78
2019-03-24T22:30:11.983Z,8.81
2019-03-24T22:32:40.039Z,8.84
2019-03-24T22:35:07.415Z,8.90
2019-03-24T22:37:34.748Z,8.87
2019-03-24T22:40:03.692Z,8.89
2019-03-24T22:42:31.898Z,8.87
2019-03-24T22:44:59.293Z,8.94
2019-03-24T22:47:26.629Z,8.95
2019-03-24T22:49:53.904Z,9.02
2019-03-24T22:52:21.176Z,9.04
2019-03-24T22:54:48.372Z,9.07
2019-03-24T22:57:15.575Z,9.10
2019-03-24T22:59:42.772Z,9.12
2019-03-24T23:02:10.093Z,9.16
2019-03-24T23:04:37.381Z,9.19
2019-03-24T23:07:04.637Z,9.25
2019-03-24T23:09:31.823Z,9.29
2019-03-24T23:11:59.047Z,9.37
2019-03-24T23:14:26.349Z,9.38
2019-03-24T23:16:53.623Z,9.42
2019-03-24T23:19:20.909Z,9.46
2019-03-24T23:21:48.373Z,9.49
2019-03-24T23:24:16.101Z,9.51
2019-03-24T23:26:43.537Z,9.51
2019-03-24T23:29:11.044Z,9.51
2019-03-24T23:31:38.236Z,9.53
2019-03-24T23:34:05.358Z,9.55
2019-03-24T23:36:32.758Z,9.58
2019-03-24T23:38:59.956Z,9.59
2019-03-24T23:41:27.147Z,9.55
2019-03-24T23:43:54.460Z,9.56
2019-03-24T23:46:21.695Z,9.57
2019-03-24T23:48:48.861Z,9.53
2019-03-24T23:51:16.159Z,9.51
2019-03-24T23:53:43.328Z,9.51
2019-03-24T23:56:10.690Z,9.50
2019-03-24T23:58:41.028Z,9.49
